createdAt,value
2023-02-14T00:01:10.673Z,4.00
2023-02-14T00:04:35.323Z,3.05
2023-02-14T00:07:58.527Z,5.10
2023-02-14T00:11:21.905Z,5.82
2023-02-14T00:15:02.576Z,4.05
2023-02-14T00:18:45.911Z,5.72
2023-02-14T00:22:10.531Z,4.38
2023-02-14T00:25:35.321Z,3.03
2023-02-14T00:28:58.175Z,3.63
2023-02-14T00:32:20.626Z,5.97
2023-02-14T00:35:43.272Z,3.40
2023-02-14T00:39:08.795Z,7.03
2023-02-14T00:42:31.242Z,6.32
2023-02-14T00:45:54.056Z,10.25
2023-02-14T00:49:17.066Z,6.25
2023-02-14T00:52:39.812Z,10.65
2023-02-14T00:56:04.305Z,6.10
2023-02-14T00:59:26.756Z,4.35
2023-02-14T01:02:49.361Z,4.82
2023-02-14T01:06:12.058Z,9.05
2023-02-14T01:09:35.129Z,6.38
2023-02-14T01:12:59.111Z,7.25
2023-02-14T01:16:24.288Z,14.30
2023-02-14T01:19:46.961Z,4.80
2023-02-14T01:23:09.830Z,4.95
2023-02-14T01:26:33.098Z,4.15
2023-02-14T01:29:57.308Z,2.83
2023-02-14T01:33:20.142Z,3.83
2023-02-14T01:36:43.104Z,4.10
2023-02-14T01:40:08.732Z,9.77
2023-02-14T01:43:31.586Z,10.00
2023-02-14T01:46:56.289Z,2.35
2023-02-14T01:50:23.143Z,4.85
2023-02-14T01:53:46.714Z,6.28
2023-02-14T01:57:15.715Z,5.82
2023-02-14T02:00:57.536Z,4.78
2023-02-14T02:04:27.996Z,4.68
2023-02-14T02:07:51.629Z,2.13
2023-02-14T02:11:14.899Z,7.90
2023-02-14T02:14:38.046Z,5.38
2023-02-14T02:18:10.856Z,4.68
2023-02-14T02:22:12.426Z,3.60
2023-02-14T02:25:53.708Z,4.47
2023-02-14T02:29:59.836Z,3.72
2023-02-14T02:33:45.984Z,3.72
2023-02-14T02:37:32.113Z,4.32
2023-02-14T02:41:06.721Z,3.42
2023-02-14T02:44:38.042Z,5.53
2023-02-14T02:48:08.107Z,5.43
2023-02-14T02:51:56.206Z,0.63
2023-02-14T02:55:27.608Z,2.72
2023-02-14T02:58:56.917Z,1.38
2023-02-14T03:02:25.202Z,2.72
2023-02-14T03:05:46.627Z,5.20
2023-02-14T03:09:15.220Z,1.95
2023-02-14T03:13:02.235Z,5.18
2023-02-14T03:16:32.369Z,2.28
2023-02-14T03:20:17.765Z,6.93
2023-02-14T03:23:46.290Z,5.30
2023-02-14T03:27:17.196Z,3.20
2023-02-14T03:30:49.351Z,4.78
2023-02-14T03:34:17.969Z,3.13
2023-02-14T03:37:47.271Z,3.58
2023-02-14T03:41:14.844Z,1.88
2023-02-14T03:44:40.255Z,4.18
2023-02-14T03:48:10.457Z,4.60
2023-02-14T03:51:36.518Z,3.10
2023-02-14T03:55:02.857Z,8.18
2023-02-14T03:58:29.303Z,2.35
2023-02-14T04:01:58.056Z,4.53
2023-02-14T04:05:26.297Z,4.78
2023-02-14T04:08:48.938Z,4.35
2023-02-14T04:12:12.512Z,4.78
2023-02-14T04:15:35.828Z,5.55
2023-02-14T04:19:16.342Z,5.47
2023-02-14T04:22:40.642Z,3.33
2023-02-14T04:26:05.558Z,3.80
2023-02-14T04:29:28.921Z,3.05
2023-02-14T04:32:52.194Z,10.63
2023-02-14T04:36:15.005Z,2.67
2023-02-14T04:39:40.488Z,6.30
2023-02-14T04:43:05.050Z,13.45
2023-02-14T04:46:28.236Z,17.92
2023-02-14T04:49:50.665Z,10.60
2023-02-14T04:53:13.316Z,12.20
2023-02-14T04:56:37.310Z,20.38
2023-02-14T05:00:00.665Z,24.92
2023-02-14T05:03:23.212Z,14.20
2023-02-14T05:06:46.352Z,14.00
2023-02-14T05:10:10.058Z,9.52
2023-02-14T05:13:34.513Z,2.92
2023-02-14T05:16:57.207Z,5.00
2023-02-14T05:20:20.369Z,6.70
2023-02-14T05:23:43.428Z,4.88
2023-02-14T05:27:06.083Z,5.85
2023-02-14T05:30:30.675Z,7.90
2023-02-14T05:33:53.741Z,5.07
2023-02-14T05:37:16.812Z,6.63
2023-02-14T05:40:39.971Z,14.77
2023-02-14T05:44:02.930Z,18.25
2023-02-14T05:47:27.638Z,11.73
2023-02-14T05:50:50.298Z,24.23
2023-02-14T05:54:13.043Z,31.23
2023-02-14T05:57:36.316Z,15.65
2023-02-14T06:00:59.745Z,11.23
2023-02-14T06:04:24.853Z,5.80
2023-02-14T06:07:51.039Z,3.47
2023-02-14T06:11:14.395Z,8.13
2023-02-14T06:14:37.667Z,7.57
2023-02-14T06:18:00.627Z,6.88
2023-02-14T06:21:25.329Z,14.23
2023-02-14T06:24:48.484Z,7.35
2023-02-14T06:28:11.453Z,7.88
2023-02-14T06:31:34.162Z,8.63
2023-02-14T06:34:57.478Z,4.47
2023-02-14T06:38:21.461Z,7.15
2023-02-14T06:41:44.414Z,4.40
2023-02-14T06:45:08.299Z,5.43
2023-02-14T06:48:31.486Z,6.18
2023-02-14T06:51:57.395Z,6.80
2023-02-14T06:55:22.201Z,4.50
2023-02-14T06:58:45.469Z,6.28
2023-02-14T07:02:08.654Z,8.00
2023-02-14T07:05:32.307Z,3.70
2023-02-14T07:08:55.164Z,7.85
2023-02-14T07:12:19.663Z,8.65
2023-02-14T07:15:42.329Z,6.53
2023-02-14T07:19:05.381Z,8.68
2023-02-14T07:22:30.306Z,12.55
2023-02-14T07:25:55.902Z,8.27
2023-02-14T07:29:20.803Z,6.90
2023-02-14T07:32:44.072Z,17.20
2023-02-14T07:36:07.364Z,13.55
2023-02-14T07:39:30.408Z,14.30
2023-02-14T07:42:55.921Z,11.85
2023-02-14T07:46:20.461Z,14.65
2023-02-14T07:49:43.994Z,7.35
2023-02-14T07:53:08.700Z,5.60
2023-02-14T07:56:31.668Z,8.27
2023-02-14T07:59:54.307Z,7.75
2023-02-14T08:03:18.925Z,8.77
2023-02-14T08:06:41.656Z,13.82
2023-02-14T08:10:04.725Z,10.10
2023-02-14T08:13:27.981Z,17.77
2023-02-14T08:16:51.262Z,11.70
2023-02-14T08:20:17.177Z,9.65
2023-02-14T08:23:40.572Z,14.38
2023-02-14T08:27:03.406Z,10.57
2023-02-14T08:30:26.825Z,14.02
2023-02-14T08:33:49.543Z,20.67
2023-02-14T08:37:13.722Z,13.90
2023-02-14T08:40:37.513Z,5.40
2023-02-14T08:44:00.377Z,13.02
2023-02-14T08:47:23.117Z,8.13
2023-02-14T08:50:45.867Z,7.43
2023-02-14T08:54:10.282Z,3.53
2023-02-14T08:57:33.325Z,8.68
2023-02-14T09:00:56.981Z,2.83
2023-02-14T09:04:19.685Z,5.88
2023-02-14T09:07:42.739Z,4.68
2023-02-14T09:11:11.430Z,9.88
2023-02-14T09:14:37.758Z,10.40
2023-02-14T09:18:00.929Z,9.48
2023-02-14T09:21:26.563Z,14.05
2023-02-14T09:24:49.292Z,9.18
2023-02-14T09:28:13.888Z,39.03
2023-02-14T09:31:37.026Z,11.25
2023-02-14T09:35:17.327Z,4.03
2023-02-14T09:38:40.082Z,10.10
2023-02-14T09:42:27.403Z,16.67
2023-02-14T09:45:56.774Z,29.92
2023-02-14T09:52:43.762Z,10.23
2023-02-14T09:56:13.483Z,12.20
2023-02-14T09:59:45.446Z,4.88
2023-02-14T10:03:30.958Z,12.75
2023-02-14T10:07:01.373Z,20.30
2023-02-14T10:10:31.298Z,12.55
2023-02-14T10:13:58.663Z,26.40
2023-02-14T10:17:31.242Z,25.88
2023-02-14T10:21:01.313Z,23.00
2023-02-14T10:24:29.449Z,25.80
2023-02-14T10:27:55.282Z,8.13
2023-02-14T10:31:24.086Z,9.70
2023-02-14T10:34:50.622Z,11.67
2023-02-14T10:38:27.203Z,4.13
2023-02-14T10:41:55.176Z,14.30
2023-02-14T10:45:25.610Z,6.03
2023-02-14T10:48:58.917Z,41.53
2023-02-14T10:52:31.607Z,5.85
2023-02-14T10:56:02.252Z,7.15
2023-02-14T10:59:29.766Z,3.38
2023-02-14T11:02:55.963Z,6.97
2023-02-14T11:06:18.959Z,3.72
2023-02-14T11:09:41.976Z,2.22
2023-02-14T11:13:29.720Z,5.85
2023-02-14T11:16:53.552Z,8.93
2023-02-14T11:20:26.806Z,7.00
2023-02-14T11:23:52.214Z,3.88
2023-02-14T11:27:19.807Z,11.57
2023-02-14T11:30:48.067Z,8.93
2023-02-14T11:34:27.512Z,2.08
2023-02-14T11:37:53.855Z,4.22
2023-02-14T11:41:18.651Z,3.15
2023-02-14T11:44:59.118Z,6.20
2023-02-14T11:48:37.101Z,4.50
2023-02-14T11:52:13.313Z,6.90
2023-02-14T11:55:37.290Z,1.75
2023-02-14T11:59:04.145Z,2.33
2023-02-14T12:02:31.033Z,0.95
2023-02-14T12:06:01.237Z,3.35
2023-02-14T12:09:30.635Z,1.00
2023-02-14T12:12:56.675Z,10.77
2023-02-14T12:16:28.254Z,7.43
2023-02-14T12:19:57.645Z,9.18
2023-02-14T12:23:28.697Z,4.90
2023-02-14T12:26:58.420Z,5.55
2023-02-14T12:30:23.362Z,5.05
2023-02-14T12:33:48.398Z,11.88
2023-02-14T12:37:33.093Z,11.70
2023-02-14T12:41:08.923Z,11.20
2023-02-14T12:44:41.643Z,6.47
2023-02-14T12:48:16.191Z,5.50
2023-02-14T12:51:50.906Z,5.45
2023-02-14T12:55:31.100Z,6.05
2023-02-14T12:59:04.785Z,4.78
2023-02-14T13:02:58.479Z,4.57
2023-02-14T13:06:30.016Z,1.05
2023-02-14T13:09:59.394Z,9.02
2023-02-14T13:13:32.062Z,9.40
2023-02-14T13:17:01.435Z,10.23
2023-02-14T13:20:45.694Z,6.82
2023-02-14T13:24:17.365Z,5.45
2023-02-14T13:27:41.553Z,4.70
2023-02-14T13:31:05.629Z,4.35
2023-02-14T13:34:34.692Z,6.75
2023-02-14T13:38:01.053Z,3.53
2023-02-14T13:41:25.770Z,3.35
2023-02-14T13:44:50.982Z,32.85
2023-02-14T13:48:15.276Z,3.08
2023-02-14T13:51:52.080Z,13.90
2023-02-14T13:55:20.249Z,5.60
2023-02-14T13:58:49.655Z,4.75
2023-02-14T14:02:34.155Z,2.92
2023-02-14T14:06:11.309Z,3.95
2023-02-14T14:09:57.012Z,1.83
2023-02-14T14:13:49.349Z,6.82
2023-02-14T14:17:28.201Z,3.92
2023-02-14T14:20:53.198Z,3.03
2023-02-14T14:24:25.175Z,4.07
2023-02-14T14:27:49.559Z,5.05
2023-02-14T14:31:15.735Z,4.75
2023-02-14T14:34:38.963Z,6.68
2023-02-14T14:38:03.763Z,9.43
2023-02-14T14:41:31.648Z,16.42
2023-02-14T14:44:59.002Z,27.92
2023-02-14T14:48:28.616Z,21.30
2023-02-14T14:51:51.998Z,22.20
2023-02-14T14:55:22.424Z,47.38
2023-02-14T14:58:45.698Z,31.00
2023-02-14T15:02:24.023Z,28.05
2023-02-14T15:05:49.139Z,68.00
2023-02-14T15:09:18.435Z,105.55
2023-02-14T15:12:59.011Z,130.15
2023-02-14T15:16:29.884Z,131.77
2023-02-14T15:19:57.285Z,116.90
2023-02-14T15:23:24.178Z,74.20
2023-02-14T15:26:50.973Z,84.53
2023-02-14T15:30:29.673Z,62.08
2023-02-14T15:33:53.020Z,39.35
2023-02-14T15:37:18.441Z,34.03
2023-02-14T15:40:42.430Z,22.38
2023-02-14T15:44:05.793Z,32.17
2023-02-14T15:47:28.755Z,21.63
2023-02-14T15:50:54.888Z,30.15
2023-02-14T15:54:31.488Z,38.20
2023-02-14T15:57:58.731Z,44.90
2023-02-14T16:01:23.474Z,39.95
2023-02-14T16:04:46.688Z,28.48
2023-02-14T16:08:30.025Z,18.90
2023-02-14T16:11:54.726Z,8.50
2023-02-14T16:15:22.356Z,6.28
2023-02-14T16:18:48.132Z,14.45
2023-02-14T16:22:13.533Z,21.40
2023-02-14T16:25:36.595Z,27.80
2023-02-14T16:29:00.587Z,28.33
2023-02-14T16:32:24.959Z,32.53
2023-02-14T16:35:47.837Z,49.50
2023-02-14T16:39:17.858Z,128.10
2023-02-14T16:42:42.253Z,112.00
2023-02-14T16:46:07.065Z,102.97
2023-02-14T16:49:30.731Z,105.10
2023-02-14T16:52:56.583Z,85.68
2023-02-14T16:56:23.309Z,68.00
2023-02-14T16:59:47.091Z,62.63
2023-02-14T17:03:12.093Z,42.42
2023-02-14T17:06:38.333Z,26.52
2023-02-14T17:10:07.127Z,30.67
2023-02-14T17:13:34.515Z,25.05
2023-02-14T17:16:58.784Z,15.80
2023-02-14T17:20:25.125Z,22.20
2023-02-14T17:23:48.083Z,16.67
2023-02-14T17:27:11.761Z,18.92
2023-02-14T17:30:34.630Z,17.38
2023-02-14T17:33:57.988Z,12.80
2023-02-14T17:37:22.701Z,12.88
2023-02-14T17:40:45.476Z,9.57
2023-02-14T17:44:09.013Z,7.38
2023-02-14T17:47:33.106Z,9.02
2023-02-14T17:50:56.883Z,10.07
2023-02-14T17:54:22.095Z,8.40
2023-02-14T17:57:44.852Z,7.03
2023-02-14T18:01:10.494Z,12.50
2023-02-14T18:04:35.484Z,13.85
2023-02-14T18:07:58.526Z,9.25
2023-02-14T18:11:23.555Z,11.45
2023-02-14T18:14:46.531Z,5.28
2023-02-14T18:18:11.526Z,5.68
2023-02-14T18:21:36.751Z,6.78
2023-02-14T18:24:59.698Z,5.78
2023-02-14T18:28:24.698Z,5.38
2023-02-14T18:31:47.715Z,8.82
2023-02-14T18:35:10.649Z,3.97
2023-02-14T18:38:33.779Z,7.55
2023-02-14T18:42:00.531Z,8.45
2023-02-14T18:45:24.973Z,5.43
2023-02-14T18:48:47.782Z,6.53
2023-02-14T18:52:10.841Z,8.98
2023-02-14T18:55:33.601Z,18.00
2023-02-14T18:58:59.730Z,10.82
2023-02-14T19:02:24.250Z,14.05
2023-02-14T19:05:46.979Z,7.88
2023-02-14T19:09:12.412Z,16.42
2023-02-14T19:12:35.781Z,7.63
2023-02-14T19:15:59.053Z,9.77
2023-02-14T19:19:23.738Z,6.97
2023-02-14T19:22:46.806Z,3.63
2023-02-14T19:26:14.781Z,11.30
2023-02-14T19:29:38.970Z,7.25
2023-02-14T19:33:01.843Z,7.57
2023-02-14T19:36:26.840Z,12.10
2023-02-14T19:39:50.199Z,10.88
2023-02-14T19:43:13.368Z,10.32
2023-02-14T19:46:38.637Z,10.73
2023-02-14T19:50:02.064Z,12.88
2023-02-14T19:53:26.552Z,13.15
2023-02-14T19:56:49.820Z,14.75
2023-02-14T20:00:14.412Z,20.90
2023-02-14T20:03:38.578Z,22.02
2023-02-14T20:07:01.362Z,20.20
2023-02-14T20:10:26.027Z,12.30
2023-02-14T20:13:49.371Z,13.27
2023-02-14T20:17:15.561Z,12.95
2023-02-14T20:20:52.138Z,11.20
2023-02-14T20:24:17.965Z,8.38
2023-02-14T20:27:42.624Z,11.90
2023-02-14T20:31:11.751Z,12.18
2023-02-14T20:34:34.581Z,16.08
2023-02-14T20:37:57.592Z,15.23
2023-02-14T20:41:20.861Z,24.85
2023-02-14T20:44:46.745Z,21.55
2023-02-14T20:48:10.151Z,24.10
2023-02-14T20:51:33.120Z,30.77
2023-02-14T20:54:56.380Z,22.15
2023-02-14T20:58:19.339Z,13.35
2023-02-14T21:01:43.861Z,11.40
2023-02-14T21:05:07.207Z,12.15
2023-02-14T21:08:30.167Z,9.65
2023-02-14T21:11:54.556Z,11.82
2023-02-14T21:15:17.822Z,9.13
2023-02-14T21:18:43.555Z,7.82
2023-02-14T21:22:06.511Z,6.97
2023-02-14T21:25:29.578Z,3.72
2023-02-14T21:28:52.336Z,5.28
2023-02-14T21:32:15.594Z,4.40
2023-02-14T21:35:41.124Z,3.95
2023-02-14T21:39:06.852Z,4.50
2023-02-14T21:42:29.503Z,3.80
2023-02-14T21:45:55.517Z,4.50
2023-02-14T21:49:36.003Z,5.97
2023-02-14T21:53:00.197Z,4.20
2023-02-14T21:56:23.462Z,4.25
2023-02-14T21:59:46.628Z,10.20
2023-02-14T22:03:11.655Z,7.88
2023-02-14T22:06:37.248Z,6.25
2023-02-14T22:10:02.665Z,6.00
2023-02-14T22:13:26.448Z,5.90
2023-02-14T22:16:49.822Z,4.93
2023-02-14T22:20:14.113Z,3.72
2023-02-14T22:23:37.478Z,4.20
2023-02-14T22:27:01.870Z,5.80
2023-02-14T22:30:25.576Z,6.15
2023-02-14T22:33:50.344Z,4.32
2023-02-14T22:37:13.526Z,4.45
2023-02-14T22:40:36.474Z,5.30
2023-02-14T22:44:00.721Z,4.75
2023-02-14T22:47:23.831Z,6.68
2023-02-14T22:50:49.703Z,4.97
2023-02-14T22:54:14.559Z,6.65
2023-02-14T22:57:37.104Z,6.43
2023-02-14T23:01:01.301Z,6.47
2023-02-14T23:04:25.498Z,3.70
2023-02-14T23:07:48.442Z,5.60
2023-02-14T23:11:13.249Z,6.57
2023-02-14T23:14:53.717Z,5.40
2023-02-14T23:18:35.521Z,4.70
2023-02-14T23:21:59.193Z,5.15
2023-02-14T23:25:22.259Z,7.60
2023-02-14T23:28:45.444Z,4.25
2023-02-14T23:32:09.536Z,4.47
2023-02-14T23:35:34.002Z,3.30
2023-02-14T23:38:56.657Z,3.55
2023-02-14T23:42:20.244Z,3.53
2023-02-14T23:45:43.244Z,4.35
2023-02-14T23:49:06.880Z,2.88
2023-02-14T23:52:31.475Z,4.25
2023-02-14T23:55:54.958Z,3.70
2023-02-14T23:59:19.351Z,5.68
